createdAt,value
2019-01-13T00:00:41.210Z,2.80
2019-01-13T00:05:50.802Z,2.80
2019-01-13T00:11:00.157Z,2.90
2019-01-13T00:16:06.846Z,2.80
2019-01-13T00:21:10.718Z,2.90
2019-01-13T00:26:17.618Z,2.80
2019-01-13T00:31:21.229Z,2.90
2019-01-13T00:36:27.717Z,2.80
2019-01-13T00:41:34.430Z,2.80
2019-01-13T00:46:40.529Z,2.80
2019-01-13T00:51:44.130Z,2.70
2019-01-13T00:56:49.385Z,2.80
2019-01-13T01:02:01.494Z,2.90
2019-01-13T01:07:05.615Z,2.90
2019-01-13T01:12:11.976Z,2.80
2019-01-13T01:17:29.286Z,2.80
2019-01-13T01:22:32.886Z,2.80
2019-01-13T01:27:39.204Z,2.80
2019-01-13T01:32:44.439Z,2.70
2019-01-13T01:37:51.154Z,2.80
2019-01-13T01:42:58.378Z,2.80
2019-01-13T01:48:16.838Z,2.90
2019-01-13T01:53:22.854Z,2.90
2019-01-13T01:58:35.647Z,2.90
2019-01-13T02:03:39.297Z,3.00
2019-01-13T02:08:48.547Z,3.00
2019-01-13T02:13:55.037Z,3.00
2019-01-13T02:18:58.634Z,3.00
2019-01-13T02:24:03.209Z,3.00
2019-01-13T02:29:08.429Z,3.00
2019-01-13T02:34:12.027Z,3.20
2019-01-13T02:39:15.634Z,3.20
2019-01-13T02:44:22.357Z,3.20
2019-01-13T02:49:31.750Z,3.20
2019-01-13T02:54:38.060Z,3.20
2019-01-13T02:59:41.739Z,3.10
2019-01-13T03:04:45.322Z,3.30
2019-01-13T03:09:50.542Z,3.20
2019-01-13T03:14:56.893Z,3.40
2019-01-13T03:20:02.562Z,3.30
2019-01-13T03:25:12.106Z,3.40
2019-01-13T03:30:19.551Z,3.50
2019-01-13T03:35:26.229Z,3.50
2019-01-13T03:40:29.885Z,3.40
2019-01-13T03:45:36.442Z,3.40
2019-01-13T03:50:43.168Z,3.50
2019-01-13T04:00:58.831Z,3.40
2019-01-13T04:06:02.409Z,3.30
2019-01-13T04:11:07.722Z,3.30
2019-01-13T04:16:13.932Z,3.30
2019-01-13T04:21:17.511Z,3.20
2019-01-13T04:26:23.918Z,3.30
2019-01-13T04:31:27.505Z,3.30
2019-01-13T04:36:31.087Z,3.40
2019-01-13T04:41:37.336Z,3.40
2019-01-13T04:46:46.887Z,3.50
2019-01-13T04:51:53.036Z,3.40
2019-01-13T04:56:58.267Z,3.40
2019-01-13T05:02:03.497Z,3.50
2019-01-13T05:07:11.219Z,3.50
2019-01-13T05:12:17.521Z,3.40
2019-01-13T05:17:21.183Z,3.40
2019-01-13T05:22:24.768Z,3.50
2019-01-13T05:27:28.678Z,3.50
2019-01-13T05:32:32.332Z,3.40
2019-01-13T05:37:35.913Z,3.50
2019-01-13T05:42:39.496Z,3.60
2019-01-13T05:47:43.215Z,3.60
2019-01-13T05:52:47.911Z,3.70
2019-01-13T05:57:54.582Z,3.70
2019-01-13T06:03:01.148Z,3.70
2019-01-13T06:08:15.065Z,3.80
2019-01-13T06:13:18.575Z,3.70
2019-01-13T06:18:22.602Z,3.80
2019-01-13T06:23:26.273Z,3.80
2019-01-13T06:28:31.487Z,3.90
2019-01-13T06:33:35.072Z,3.80
2019-01-13T06:38:38.652Z,3.90
2019-01-13T06:43:43.887Z,3.90
2019-01-13T06:48:50.695Z,3.70
2019-01-13T06:53:57.000Z,3.70
2019-01-13T06:59:05.226Z,3.70
2019-01-13T07:04:11.338Z,3.70
2019-01-13T07:09:22.647Z,3.90
2019-01-13T07:14:26.251Z,4.00
2019-01-13T07:19:29.834Z,4.10
2019-01-13T07:24:36.090Z,4.20
2019-01-13T07:29:45.718Z,4.00
2019-01-13T07:34:52.025Z,4.10
2019-01-13T07:40:01.567Z,4.10
2019-01-13T07:45:08.787Z,4.10
2019-01-13T07:50:18.906Z,4.20
2019-01-13T07:55:22.618Z,4.20
2019-01-13T08:00:28.852Z,4.20
2019-01-13T08:05:33.188Z,4.10
2019-01-13T08:10:39.734Z,4.00
2019-01-13T08:15:43.324Z,3.90
2019-01-13T08:20:48.586Z,3.80
2019-01-13T08:25:52.189Z,3.80
2019-01-13T08:30:57.322Z,3.70
2019-01-13T08:36:00.936Z,3.80
2019-01-13T08:41:04.641Z,3.60
2019-01-13T08:46:11.859Z,3.60
2019-01-13T08:51:18.119Z,3.70
2019-01-13T08:56:21.730Z,3.80
2019-01-13T09:01:28.584Z,3.70
2019-01-13T09:06:35.024Z,3.70
2019-01-13T09:11:39.536Z,3.60
2019-01-13T09:16:45.922Z,3.70
2019-01-13T09:21:49.526Z,3.70
2019-01-13T09:26:53.555Z,3.90
2019-01-13T09:32:00.325Z,3.80
2019-01-13T09:37:04.075Z,3.70
2019-01-13T09:42:10.846Z,3.60
2019-01-13T09:47:18.854Z,3.70
2019-01-13T09:52:22.504Z,3.70
2019-01-13T09:57:27.830Z,3.60
2019-01-13T10:02:31.434Z,3.60
2019-01-13T10:07:43.851Z,3.60
2019-01-13T10:12:47.473Z,3.60
2019-01-13T10:17:56.366Z,3.80
2019-01-13T10:22:59.959Z,3.70
2019-01-13T10:28:05.328Z,4.00
2019-01-13T10:33:17.635Z,3.90
2019-01-13T10:38:22.866Z,3.70
2019-01-13T10:43:29.059Z,3.70
2019-01-13T10:48:34.351Z,3.70
2019-01-13T10:53:43.322Z,3.60
2019-01-13T10:58:48.555Z,3.70
2019-01-13T11:03:54.586Z,3.80
2019-01-13T11:08:58.187Z,3.60
2019-01-13T11:14:05.797Z,3.70
2019-01-13T11:19:12.112Z,3.70
2019-01-13T11:24:15.778Z,3.70
2019-01-13T11:29:21.086Z,3.80
2019-01-13T11:34:24.871Z,3.70
2019-01-13T11:39:31.505Z,3.70
2019-01-13T11:44:35.134Z,3.60
2019-01-13T11:49:43.551Z,3.70
2019-01-13T11:54:47.191Z,3.80
2019-01-13T11:59:53.729Z,3.80
2019-01-13T12:05:00.182Z,3.80
2019-01-13T12:10:08.524Z,3.80
2019-01-13T12:15:14.369Z,3.80
2019-01-13T12:20:32.083Z,3.80
2019-01-13T12:25:40.338Z,3.80
2019-01-13T12:30:44.047Z,3.70
2019-01-13T12:35:47.752Z,3.80
2019-01-13T12:40:56.006Z,3.80
2019-01-13T12:46:13.501Z,3.80
2019-01-13T12:51:10.371Z,3.90
2019-01-13T12:56:27.253Z,3.90
2019-01-13T13:01:38.130Z,4.00
2019-01-13T13:06:41.744Z,4.00
2019-01-13T13:11:51.042Z,4.10
2019-01-13T13:16:56.389Z,4.20
2019-01-13T13:22:08.771Z,4.30
2019-01-13T13:27:13.495Z,4.30
2019-01-13T13:32:28.968Z,4.40
2019-01-13T13:37:38.260Z,4.40
2019-01-13T13:42:53.659Z,4.50
2019-01-13T13:48:06.364Z,4.50
2019-01-13T13:53:20.088Z,4.50
2019-01-13T13:58:32.695Z,4.50
2019-01-13T14:03:46.005Z,4.50
2019-01-13T14:08:49.722Z,4.60
2019-01-13T14:13:57.354Z,4.70
2019-01-13T14:19:06.920Z,4.70
2019-01-13T14:24:06.324Z,4.70
2019-01-13T14:29:13.033Z,4.70
2019-01-13T14:34:21.609Z,4.70
2019-01-13T14:39:25.267Z,4.70
2019-01-13T14:44:28.859Z,4.70
2019-01-13T14:49:32.553Z,4.70
2019-01-13T14:59:42.219Z,4.90
2019-01-13T15:04:45.826Z,5.00
2019-01-13T15:09:49.497Z,5.10
2019-01-13T15:14:53.166Z,5.10
2019-01-13T15:19:58.474Z,5.10
2019-01-13T15:25:02.078Z,5.20
2019-01-13T15:30:08.807Z,5.20
2019-01-13T15:35:14.422Z,5.20
2019-01-13T15:40:21.482Z,5.30
2019-01-13T15:45:25.163Z,5.40
2019-01-13T15:50:32.446Z,5.40
2019-01-13T15:55:40.900Z,5.50
2019-01-13T16:00:44.533Z,5.60
2019-01-13T16:05:56.332Z,5.60
2019-01-13T16:11:00.009Z,5.70
2019-01-13T16:16:05.429Z,5.80
2019-01-13T16:21:09.212Z,5.80
2019-01-13T16:26:14.440Z,5.90
2019-01-13T16:31:18.184Z,5.80
2019-01-13T16:36:24.435Z,5.80
2019-01-13T16:41:32.841Z,5.90
2019-01-13T16:46:36.452Z,5.90
2019-01-13T16:51:42.808Z,5.90
2019-01-13T16:56:52.684Z,5.90
2019-01-13T17:01:56.487Z,6.00
2019-01-13T17:07:09.204Z,6.00
2019-01-13T17:12:15.800Z,6.10
2019-01-13T17:17:25.246Z,6.00
2019-01-13T17:22:29.063Z,6.10
2019-01-13T17:27:34.298Z,6.20
2019-01-13T17:32:37.919Z,6.20
2019-01-13T17:37:41.561Z,6.20
2019-01-13T17:42:46.977Z,6.20
2019-01-13T17:47:50.905Z,6.30
2019-01-13T17:58:01.951Z,6.20
2019-01-13T18:03:08.426Z,6.20
2019-01-13T18:08:12.026Z,6.30
2019-01-13T18:13:17.266Z,6.20
2019-01-13T18:18:21.177Z,6.20
2019-01-13T18:23:30.474Z,6.30
2019-01-13T18:28:34.100Z,6.20
2019-01-13T18:33:40.619Z,6.30
2019-01-13T18:38:46.136Z,6.30
2019-01-13T18:43:51.431Z,6.30
2019-01-13T18:48:56.189Z,6.30
2019-01-13T18:53:59.739Z,6.30
2019-01-13T18:59:11.836Z,6.30
2019-01-13T19:04:20.754Z,6.30
2019-01-13T19:09:25.986Z,6.30
2019-01-13T19:14:33.769Z,6.40
2019-01-13T19:24:44.438Z,6.30
2019-01-13T19:29:48.126Z,6.30
2019-01-13T19:35:04.687Z,6.40
2019-01-13T19:40:11.027Z,6.40
2019-01-13T19:45:17.455Z,6.50
2019-01-13T19:50:24.430Z,6.40
2019-01-13T19:55:28.063Z,6.40
2019-01-13T20:00:41.703Z,6.60
2019-01-13T20:05:53.922Z,6.60
2019-01-13T20:16:06.859Z,6.50
2019-01-13T20:21:10.498Z,6.70
2019-01-13T20:26:17.683Z,6.70
2019-01-13T20:46:50.002Z,6.70
2019-01-13T20:51:59.586Z,6.70
2019-01-13T20:57:07.854Z,6.50
2019-01-13T21:02:16.385Z,6.50
2019-01-13T21:07:22.667Z,6.50
2019-01-13T21:12:36.275Z,6.50
2019-01-13T21:22:46.317Z,6.60
2019-01-13T21:27:58.837Z,6.50
2019-01-13T21:33:05.440Z,6.50
2019-01-13T21:48:29.618Z,6.60
2019-01-13T21:53:39.205Z,6.70
2019-01-13T21:58:50.113Z,6.90
2019-01-13T22:08:59.942Z,7.10
2019-01-13T22:19:14.462Z,7.40
2019-01-13T22:24:18.570Z,7.30
2019-01-13T22:29:23.807Z,7.30
2019-01-13T22:34:30.290Z,7.30
2019-01-13T22:39:38.519Z,7.20
2019-01-13T22:44:46.679Z,7.00
2019-01-13T22:49:51.912Z,7.00
2019-01-13T22:55:01.193Z,6.90
2019-01-13T23:00:48.522Z,6.90
2019-01-13T23:05:55.737Z,7.10
2019-01-13T23:10:59.483Z,7.10
2019-01-13T23:16:03.162Z,7.20
2019-01-13T23:21:09.602Z,7.10
2019-01-13T23:26:24.613Z,7.00
2019-01-13T23:31:25.662Z,7.10
2019-01-13T23:36:29.270Z,7.10
2019-01-13T23:41:37.191Z,7.10
2019-01-13T23:46:45.222Z,7.00
2019-01-13T23:51:48.833Z,7.00
2019-01-13T23:56:55.383Z,7.00
